Time;durP1;ratioP1;P1;durP2;ratioP2;P2;SDS_P1;SDS_P2;PMS_P1;PMS_P2;Temp;Humidity;BMP_temperature;BMP_pressure;BME280_temperature;BME280_humidity;BME280_pressure;Samples;Min_cycle;Max_cycle;Signal;HPM_P1;HPM_P2
2023/01/25 00:00:18;;;;;;;28.67;15.93;;;1.30;57.60;;;;;;5054145;28;20172;-68
2023/01/25 00:02:44;;;;;;;32.47;17.67;;;1.30;59.00;;;;;;5053554;28;20198;-68
2023/01/25 00:05:10;;;;;;;29.73;18.50;;;1.30;56.70;;;;;;5053851;28;20535;-72
2023/01/25 00:07:36;;;;;;;32.30;18.87;;;1.30;62.80;;;;;;5054536;28;20175;-71
2023/01/25 00:10:02;;;;;;;33.47;17.97;;;1.20;63.20;;;;;;5053355;28;20206;-68
2023/01/25 00:12:27;;;;;;;32.10;19.23;;;1.20;70.40;;;;;;5054541;28;20610;-68
2023/01/25 00:14:53;;;;;;;33.83;19.27;;;1.40;80.90;;;;;;5048687;28;20474;-69
2023/01/25 00:17:19;;;;;;;38.67;19.90;;;1.30;71.70;;;;;;5033934;28;20164;-68
2023/01/25 00:19:44;;;;;;;31.07;17.67;;;1.30;71.60;;;;;;5034411;28;20170;-71
2023/01/25 00:22:10;;;;;;;29.80;17.93;;;1.30;70.30;;;;;;5034281;28;20168;-68
2023/01/25 00:24:36;;;;;;;34.57;18.60;;;1.40;75.80;;;;;;5033331;28;20226;-70
2023/01/25 00:27:02;;;;;;;33.10;18.50;;;1.50;77.40;;;;;;5034394;28;20174;-72
2023/01/25 00:29:27;;;;;;;37.93;19.67;;;1.50;77.10;;;;;;5033589;28;20241;-69
2023/01/25 00:32:00;;;;;;;34.10;18.67;;;1.50;80.50;;;;;;5033808;28;20242;-69
2023/01/25 00:34:25;;;;;;;36.67;19.40;;;1.60;88.60;;;;;;5032796;28;20193;-68
2023/01/25 00:37:02;;;;;;;33.53;20.07;;;1.60;89.00;;;;;;5033926;28;20791;-68
2023/01/25 00:39:28;;;;;;;32.97;19.40;;;1.60;80.20;;;;;;5032956;28;20201;-68
2023/01/25 00:41:54;;;;;;;42.13;21.67;;;1.50;73.20;;;;;;5033243;28;20972;-71
2023/01/25 00:44:21;;;;;;;38.60;21.27;;;1.50;73.90;;;;;;5032904;28;20426;-69
2023/01/25 00:46:46;;;;;;;34.57;20.70;;;1.40;72.00;;;;;;5032891;28;20418;-68
2023/01/25 00:49:24;;;;;;;38.20;21.37;;;1.50;77.50;;;;;;5033862;28;20789;-69
2023/01/25 00:51:52;;;;;;;51.30;22.80;;;1.50;88.40;;;;;;5033220;28;20536;-72
2023/01/25 00:54:18;;;;;;;38.05;21.30;;;1.60;89.10;;;;;;5040536;28;20460;-70
2023/01/25 00:56:44;;;;;;;38.47;19.97;;;1.40;77.90;;;;;;5052678;28;20202;-72
2023/01/25 00:59:11;;;;;;;36.27;20.80;;;1.30;83.90;;;;;;5053627;28;20462;-68
2023/01/25 01:01:37;;;;;;;35.50;22.08;;;1.40;88.80;;;;;;5053548;28;20409;-71
2023/01/25 01:04:03;;;;;;;32.23;19.40;;;1.40;88.80;;;;;;5052065;28;20217;-69
2023/01/25 01:06:29;;;;;;;33.50;18.63;;;1.40;88.80;;;;;;5052722;28;20465;-69
2023/01/25 01:08:54;;;;;;;38.33;21.43;;;1.20;88.80;;;;;;5052379;28;20941;-68
2023/01/25 01:11:20;;;;;;;28.20;18.50;;;1.30;88.70;;;;;;5052542;28;20167;-71
2023/01/25 01:13:46;;;;;;;33.20;21.23;;;1.30;88.80;;;;;;5053455;28;20636;-72
2023/01/25 01:16:12;;;;;;;33.83;19.60;;;1.20;88.80;;;;;;5052195;28;20262;-71
2023/01/25 01:18:41;;;;;;;38.20;19.25;;;1.10;88.60;;;;;;5053237;28;20246;-71
2023/01/25 01:21:07;;;;;;;43.00;20.95;;;1.00;89.10;;;;;;5033837;28;20200;-69
2023/01/25 01:23:34;;;;;;;39.53;21.52;;;1.10;98.80;;;;;;5033248;28;20304;-69
2023/01/25 01:26:01;;;;;;;32.28;21.05;;;1.10;99.40;;;;;;5032163;28;20660;-68
2023/01/25 01:28:29;;;;;;;31.87;20.00;;;1.00;97.40;;;;;;5032594;28;20333;-72
2023/01/25 01:31:00;;;;;;;35.63;19.42;;;1.00;99.90;;;;;;5033118;28;20899;-72
2023/01/25 01:33:25;;;;;;;42.78;20.88;;;1.00;99.90;;;;;;5033047;28;20564;-72
2023/01/25 01:35:51;;;;;;;37.57;21.57;;;0.90;99.90;;;;;;5036835;28;20293;-71
2023/01/25 01:38:17;;;;;;;39.53;21.20;;;0.90;99.90;;;;;;5052887;28;20170;-71
2023/01/25 01:40:47;;;;;;;33.53;19.40;;;0.90;99.90;;;;;;5052855;28;20632;-71
2023/01/25 01:43:25;;;;;;;29.05;19.27;;;1.00;99.90;;;;;;5052884;28;20250;-68
2023/01/25 01:45:54;;;;;;;37.03;19.75;;;0.90;99.90;;;;;;5051555;28;20210;-70
2023/01/25 01:48:29;;;;;;;34.40;19.73;;;0.80;99.90;;;;;;5052749;28;20200;-68
2023/01/25 01:51:00;;;;;;;32.05;16.58;;;0.70;99.90;;;;;;5051836;28;20643;-71
2023/01/25 01:53:28;;;;;;;26.95;17.63;;;0.70;99.90;;;;;;5051886;28;20207;-72
2023/01/25 01:55:58;;;;;;;26.80;16.33;;;0.80;99.90;;;;;;5051871;28;20186;-71
2023/01/25 01:58:25;;;;;;;40.45;20.77;;;0.90;99.90;;;;;;5052810;28;20403;-71
2023/01/25 02:00:51;;;;;;;34.20;20.33;;;0.90;99.90;;;;;;5052585;28;20242;-68
2023/01/25 02:03:17;;;;;;;29.47;18.60;;;0.90;99.90;;;;;;5051154;28;20266;-68
2023/01/25 02:06:00;;;;;;;34.65;20.02;;;0.90;99.90;;;;;;5051944;28;20270;-71
2023/01/25 02:08:31;;;;;;;35.75;20.52;;;1.00;99.90;;;;;;5043624;28;20175;-70
2023/01/25 02:10:59;;;;;;;30.25;18.02;;;1.00;99.90;;;;;;5036236;28;20168;-71
2023/01/25 02:13:25;;;;;;;31.63;16.43;;;1.10;99.90;;;;;;5036600;28;20203;-68
2023/01/25 02:15:52;;;;;;;31.17;17.73;;;1.00;99.90;;;;;;5035648;28;20430;-71
2023/01/25 02:18:18;;;;;;;31.15;18.42;;;0.90;99.90;;;;;;5048790;28;20191;-71
2023/01/25 02:20:47;;;;;;;32.05;18.02;;;0.90;99.90;;;;;;5056214;28;20174;-71
2023/01/25 02:23:46;;;;;;;33.55;18.42;;;1.00;99.90;;;;;;5056460;28;20200;-68
2023/01/25 02:26:13;;;;;;;34.47;17.40;;;1.00;99.90;;;;;;5054700;28;20613;-70
2023/01/25 02:28:45;;;;;;;29.30;18.35;;;0.90;99.90;;;;;;5056314;28;20925;-68
2023/01/25 02:31:11;;;;;;;29.90;16.58;;;1.00;99.90;;;;;;5055241;28;20191;-71
2023/01/25 02:33:37;;;;;;;34.73;18.93;;;1.00;99.90;;;;;;5056221;28;20606;-69
2023/01/25 02:36:05;;;;;;;29.40;17.93;;;0.90;99.90;;;;;;5055359;28;20490;-68
2023/01/25 02:38:37;;;;;;;30.40;16.83;;;1.00;99.90;;;;;;5055885;28;20163;-68
2023/01/25 02:41:13;;;;;;;33.08;19.50;;;1.00;99.90;;;;;;5056001;28;20183;-68
2023/01/25 02:43:39;;;;;;;31.08;18.38;;;1.00;99.90;;;;;;5056031;28;20163;-69
2023/01/25 02:46:13;;;;;;;29.90;17.27;;;1.00;99.90;;;;;;5038605;28;20210;-72
2023/01/25 02:48:40;;;;;;;27.70;17.53;;;1.00;99.90;;;;;;5036151;28;20198;-71
2023/01/25 02:51:07;;;;;;;36.37;18.37;;;1.10;99.90;;;;;;5034962;28;20429;-72
2023/01/25 02:53:33;;;;;;;29.05;17.75;;;1.10;99.90;;;;;;5035907;28;20298;-69
2023/01/25 02:55:58;;;;;;;29.67;16.20;;;1.00;99.90;;;;;;5034832;28;20708;-68
2023/01/25 02:58:24;;;;;;;34.87;18.00;;;1.00;99.90;;;;;;5043676;28;20429;-71
2023/01/25 03:00:50;;;;;;;32.57;16.87;;;1.00;99.90;;;;;;5055804;28;20202;-69
2023/01/25 03:03:16;;;;;;;31.23;13.27;;;0.90;99.90;;;;;;5055739;28;20213;-68
2023/01/25 03:05:42;;;;;;;27.90;15.37;;;0.90;99.90;;;;;;5054745;28;20210;-71
2023/01/25 03:08:08;;;;;;;35.35;15.38;;;0.80;99.90;;;;;;5055639;28;20175;-68
2023/01/25 03:10:34;;;;;;;29.77;16.03;;;0.80;99.90;;;;;;5055287;28;20253;-69
2023/01/25 03:12:59;;;;;;;29.10;16.10;;;0.80;99.90;;;;;;5054456;28;20206;-71
2023/01/25 03:15:25;;;;;;;26.83;16.60;;;0.80;99.90;;;;;;5053654;28;20683;-68
2023/01/25 03:17:51;;;;;;;35.33;16.33;;;0.70;99.90;;;;;;5055530;28;20155;-68
2023/01/25 03:20:17;;;;;;;30.80;16.90;;;0.60;99.90;;;;;;5054756;28;20401;-68
2023/01/25 03:22:43;;;;;;;30.33;16.33;;;0.70;99.90;;;;;;5055496;28;20171;-72
2023/01/25 03:25:08;;;;;;;33.00;16.20;;;0.70;99.90;;;;;;5050515;28;20202;-71
2023/01/25 03:27:34;;;;;;;32.80;17.33;;;0.70;99.90;;;;;;5035327;28;20528;-68
2023/01/25 03:30:00;;;;;;;29.40;16.67;;;0.60;99.90;;;;;;5035055;28;20425;-71
2023/01/25 03:32:25;;;;;;;30.50;17.30;;;0.70;99.90;;;;;;5035214;28;20195;-71
2023/01/25 03:34:51;;;;;;;31.70;14.47;;;0.60;99.90;;;;;;5034514;28;20188;-71
2023/01/25 03:37:17;;;;;;;42.33;19.20;;;0.70;99.90;;;;;;5035035;28;20675;-71
2023/01/25 03:39:43;;;;;;;35.23;18.13;;;0.70;99.90;;;;;;5036281;28;20402;-68
2023/01/25 03:42:08;;;;;;;38.13;18.47;;;0.60;99.90;;;;;;5055114;28;20170;-67
2023/01/25 03:44:34;;;;;;;30.77;15.87;;;0.60;99.90;;;;;;5054024;28;20183;-71
2023/01/25 03:47:00;;;;;;;26.80;14.80;;;0.60;99.90;;;;;;5054787;28;20178;-70
2023/01/25 03:49:26;;;;;;;34.83;16.37;;;0.60;99.90;;;;;;5054774;28;20169;-71
2023/01/25 03:51:52;;;;;;;36.25;17.63;;;0.60;99.90;;;;;;5054702;28;20249;-68
2023/01/25 03:54:18;;;;;;;25.57;16.03;;;0.60;99.90;;;;;;5053009;28;20187;-70
2023/01/25 03:56:44;;;;;;;27.37;14.70;;;0.60;99.90;;;;;;5054845;28;20167;-68
2023/01/25 03:59:11;;;;;;;30.50;16.80;;;0.60;99.90;;;;;;5054727;28;20193;-71
2023/01/25 04:01:37;;;;;;;29.42;15.98;;;0.60;99.90;;;;;;5054563;28;20631;-70
2023/01/25 04:04:02;;;;;;;26.60;15.80;;;0.50;99.90;;;;;;5054481;28;20262;-69
2023/01/25 04:06:28;;;;;;;34.70;18.40;;;0.50;99.90;;;;;;5053533;28;20790;-71
2023/01/25 04:08:54;;;;;;;33.77;16.80;;;0.50;99.90;;;;;;5053682;28;20183;-68
2023/01/25 04:11:19;;;;;;;32.27;15.37;;;0.40;99.90;;;;;;5054397;28;20236;-68
2023/01/25 04:13:45;;;;;;;29.53;17.20;;;0.30;99.90;;;;;;5054354;28;20183;-71
2023/01/25 04:16:11;;;;;;;25.07;16.20;;;0.50;99.90;;;;;;5053549;28;20215;-69
2023/01/25 04:18:38;;;;;;;31.83;17.73;;;0.60;99.90;;;;;;5054331;28;20608;-71
2023/01/25 04:21:03;;;;;;;26.17;14.77;;;0.60;99.90;;;;;;5053142;28;20429;-68
2023/01/25 04:23:29;;;;;;;27.13;15.70;;;0.60;99.90;;;;;;5054274;28;20220;-71
2023/01/25 04:26:06;;;;;;;33.10;17.70;;;0.50;99.90;;;;;;5049700;28;20514;-68
2023/01/25 04:28:33;;;;;;;33.53;15.75;;;0.50;99.90;;;;;;5034185;28;20402;-71
2023/01/25 04:30:59;;;;;;;30.55;16.00;;;0.50;99.90;;;;;;5033210;28;20595;-71
2023/01/25 04:33:25;;;;;;;24.30;15.45;;;0.50;99.90;;;;;;5034028;28;20526;-71
2023/01/25 04:35:51;;;;;;;27.35;14.35;;;0.50;99.90;;;;;;5032916;28;20203;-68
2023/01/25 04:38:18;;;;;;;34.67;14.43;;;0.50;99.90;;;;;;5034013;28;20203;-71
2023/01/25 04:40:43;;;;;;;23.88;14.57;;;0.50;99.90;;;;;;5036396;28;20185;-71
2023/01/25 04:43:12;;;;;;;28.63;14.73;;;0.50;99.90;;;;;;5053500;28;20254;-71
2023/01/25 04:45:38;;;;;;;28.38;13.63;;;0.50;99.90;;;;;;5050587;28;20524;-68
2023/01/25 04:48:08;;;;;;;32.70;17.23;;;0.50;99.90;;;;;;5052764;28;20651;-71
2023/01/25 04:50:38;;;;;;;24.05;15.43;;;0.60;99.90;;;;;;5053728;28;20195;-68
2023/01/25 04:53:04;;;;;;;29.65;14.63;;;0.60;99.90;;;;;;5053589;28;20256;-72
2023/01/25 04:55:30;;;;;;;27.42;15.27;;;0.60;99.90;;;;;;5052809;28;20270;-71
2023/01/25 04:57:56;;;;;;;27.33;15.33;;;0.70;99.90;;;;;;5053545;28;20258;-69
2023/01/25 05:00:22;;;;;;;22.10;13.60;;;0.70;99.90;;;;;;5053564;28;20159;-71
2023/01/25 05:02:47;;;;;;;32.33;16.30;;;0.70;99.90;;;;;;5052609;28;20182;-69
2023/01/25 05:05:13;;;;;;;24.33;14.50;;;0.80;99.90;;;;;;5052389;28;20265;-68
2023/01/25 05:07:39;;;;;;;27.40;15.43;;;0.70;99.90;;;;;;5053433;28;20558;-71
2023/01/25 05:10:05;;;;;;;24.83;14.30;;;0.50;99.90;;;;;;5053338;28;20232;-72
2023/01/25 05:12:31;;;;;;;25.30;13.93;;;0.50;99.90;;;;;;5053297;28;20248;-71
2023/01/25 05:14:57;;;;;;;25.67;15.80;;;0.40;99.90;;;;;;5051341;28;20199;-69
2023/01/25 05:17:23;;;;;;;22.87;13.20;;;0.40;99.90;;;;;;5053521;28;20413;-68
2023/01/25 05:19:48;;;;;;;25.57;14.70;;;0.40;99.90;;;;;;5053204;28;20242;-71
2023/01/25 05:22:16;;;;;;;33.37;15.90;;;0.30;99.90;;;;;;5053079;28;20170;-69
2023/01/25 05:24:44;;;;;;;24.50;14.68;;;0.40;99.90;;;;;;5050748;28;20201;-68
2023/01/25 05:27:11;;;;;;;21.50;14.38;;;0.40;99.90;;;;;;5053065;28;20171;-71
2023/01/25 05:29:42;;;;;;;24.20;14.98;;;0.30;99.90;;;;;;5046439;28;20167;-71
2023/01/25 05:32:10;;;;;;;19.80;14.10;;;0.20;99.90;;;;;;5033026;28;20265;-71
2023/01/25 05:34:37;;;;;;;25.65;14.82;;;0.20;99.90;;;;;;5031666;28;20186;-68
2023/01/25 05:37:04;;;;;;;21.60;14.70;;;0.30;99.90;;;;;;5033048;28;20658;-71
2023/01/25 05:39:30;;;;;;;23.67;14.13;;;0.30;99.90;;;;;;5033032;28;20182;-71
2023/01/25 05:41:56;;;;;;;23.47;12.60;;;0.30;99.90;;;;;;5033469;28;20175;-71
2023/01/25 05:44:22;;;;;;;22.00;14.20;;;0.30;99.90;;;;;;5051824;28;20202;-71
2023/01/25 05:46:48;;;;;;;30.77;16.58;;;0.30;99.90;;;;;;5052136;28;20189;-68
2023/01/25 05:49:14;;;;;;;27.00;14.00;;;0.30;99.90;;;;;;5052501;28;20590;-68
2023/01/25 05:51:40;;;;;;;24.77;14.00;;;0.40;99.90;;;;;;5052779;28;20401;-68
2023/01/25 05:54:06;;;;;;;32.30;15.45;;;0.50;99.90;;;;;;5052583;28;20174;-68
2023/01/25 05:56:33;;;;;;;33.20;15.38;;;0.50;99.90;;;;;;5052130;28;20198;-68
2023/01/25 05:59:00;;;;;;;25.35;14.70;;;0.40;99.90;;;;;;5051029;28;20163;-68
2023/01/25 06:01:27;;;;;;;25.92;15.63;;;0.40;99.90;;;;;;5051968;28;20175;-67
2023/01/25 06:03:53;;;;;;;27.70;16.25;;;0.40;99.90;;;;;;5051772;28;20163;-66
2023/01/25 06:06:20;;;;;;;31.13;14.32;;;0.40;99.90;;;;;;5039654;28;20203;-71
2023/01/25 06:08:46;;;;;;;34.05;16.50;;;0.30;99.90;;;;;;5046898;28;20175;-71
2023/01/25 06:11:14;;;;;;;29.40;15.30;;;0.20;99.90;;;;;;5034571;28;20262;-71
2023/01/25 06:13:41;;;;;;;29.25;13.93;;;0.20;99.90;;;;;;5049099;28;20460;-68
2023/01/25 06:16:07;;;;;;;23.95;13.70;;;0.20;99.90;;;;;;5051874;28;20282;-71
2023/01/25 06:18:34;;;;;;;25.58;16.15;;;0.20;99.90;;;;;;5052257;28;20649;-70
2023/01/25 06:21:01;;;;;;;33.10;17.10;;;0.30;99.90;;;;;;5052549;28;20183;-71
2023/01/25 06:23:27;;;;;;;23.85;14.75;;;0.30;99.90;;;;;;5051833;28;20663;-69
2023/01/25 06:25:56;;;;;;;27.93;15.50;;;0.30;99.90;;;;;;5051503;28;20203;-70
2023/01/25 06:28:22;;;;;;;28.08;14.63;;;0.30;99.90;;;;;;5052404;28;20402;-68
2023/01/25 06:30:47;;;;;;;28.73;13.43;;;0.30;99.90;;;;;;5052568;28;20186;-68
2023/01/25 06:33:13;;;;;;;31.80;15.33;;;0.30;99.90;;;;;;5052404;28;20198;-71
2023/01/25 06:35:39;;;;;;;27.07;14.20;;;0.30;99.90;;;;;;5051466;28;20202;-71
2023/01/25 06:38:05;;;;;;;29.87;15.23;;;0.30;99.90;;;;;;5051234;28;20656;-68
2023/01/25 06:40:31;;;;;;;34.17;14.02;;;0.40;99.90;;;;;;5052230;28;20167;-70
2023/01/25 06:43:10;;;;;;;27.20;13.77;;;0.40;99.90;;;;;;5052309;28;20204;-69
2023/01/25 06:45:36;;;;;;;26.55;13.60;;;0.40;99.90;;;;;;5051472;28;20551;-68
2023/01/25 06:48:02;;;;;;;33.25;17.20;;;0.40;99.90;;;;;;5052503;28;20225;-68
2023/01/25 06:50:28;;;;;;;25.50;13.52;;;0.30;99.90;;;;;;5052306;28;20171;-71
2023/01/25 06:52:54;;;;;;;35.43;17.93;;;0.30;99.90;;;;;;5048042;28;20678;-68
2023/01/25 06:55:20;;;;;;;34.90;16.75;;;0.20;99.90;;;;;;5034349;28;20234;-71
2023/01/25 06:57:47;;;;;;;35.85;16.23;;;0.30;99.90;;;;;;5036012;28;20172;-71
2023/01/25 07:00:14;;;;;;;29.75;15.05;;;0.30;99.90;;;;;;5035949;28;20617;-68
2023/01/25 07:02:39;;;;;;;30.30;15.23;;;0.20;99.90;;;;;;5033336;28;20241;-68
2023/01/25 07:05:06;;;;;;;25.17;15.27;;;0.20;99.90;;;;;;5035254;28;20211;-71
2023/01/25 07:07:31;;;;;;;33.95;18.23;;;0.20;99.90;;;;;;5035821;28;20439;-70
2023/01/25 07:10:00;;;;;;;28.67;14.60;;;0.20;99.90;;;;;;5035812;28;20164;-68
2023/01/25 07:12:28;;;;;;;29.52;16.45;;;0.10;99.90;;;;;;5035464;28;20199;-71
2023/01/25 07:14:54;;;;;;;31.30;16.00;;;0.10;99.90;;;;;;5038728;28;20202;-68
2023/01/25 07:17:19;;;;;;;26.17;13.97;;;0.20;99.90;;;;;;5055561;28;20175;-67
2023/01/25 07:19:46;;;;;;;28.40;15.40;;;0.10;99.90;;;;;;5054497;28;20202;-68
2023/01/25 07:22:12;;;;;;;31.52;15.20;;;0.00;99.90;;;;;;5055371;28;20167;-68
2023/01/25 07:24:37;;;;;;;29.57;16.27;;;-0.10;99.90;;;;;;5054505;28;20190;-68
2023/01/25 07:27:03;;;;;;;29.73;13.23;;;-0.10;99.90;;;;;;5055225;28;20171;-69
2023/01/25 07:29:29;;;;;;;27.77;12.90;;;-0.10;99.90;;;;;;5049688;28;20183;-68
2023/01/25 07:31:55;;;;;;;29.87;15.50;;;-0.10;99.90;;;;;;5035261;28;20191;-68
2023/01/25 07:34:20;;;;;;;22.53;12.87;;;0.00;99.90;;;;;;5034406;28;20239;-71
2023/01/25 07:36:46;;;;;;;30.07;13.57;;;-0.10;99.90;;;;;;5035175;28;20505;-71
2023/01/25 07:39:12;;;;;;;25.57;12.80;;;-0.20;99.90;;;;;;5035083;28;20399;-68
2023/01/25 07:41:39;;;;;;;28.08;12.73;;;-0.30;99.90;;;;;;5034682;28;20172;-68
2023/01/25 07:44:05;;;;;;;29.13;13.50;;;-0.30;99.90;;;;;;5033745;28;20171;-69
2023/01/25 07:46:31;;;;;;;21.87;12.20;;;-0.20;99.90;;;;;;5034067;28;20580;-68
2023/01/25 07:48:57;;;;;;;31.83;14.50;;;-0.10;99.90;;;;;;5034993;28;20493;-69
2023/01/25 07:51:26;;;;;;;20.45;12.63;;;-0.10;1.00;;;;;;5034952;28;20243;-68
2023/01/25 07:54:03;;;;;;;19.23;11.77;;;-0.10;1.00;;;;;;5034917;28;20168;-71
2023/01/25 07:56:31;;;;;;;22.10;11.63;;;-0.20;1.00;;;;;;5043806;28;20265;-68
2023/01/25 07:58:59;;;;;;;21.00;12.02;;;-0.30;99.90;;;;;;5054782;28;20194;-69
2023/01/25 08:01:27;;;;;;;16.00;10.40;;;-0.30;1.00;;;;;;5054769;28;20171;-68
2023/01/25 08:03:57;;;;;;;27.17;13.48;;;-0.30;1.00;;;;;;5054671;28;20178;-71
2023/01/25 08:06:26;;;;;;;21.77;10.95;;;-0.30;1.00;;;;;;5051864;28;20750;-71
2023/01/25 08:08:53;;;;;;;25.77;14.32;;;-0.30;1.00;;;;;;5053609;28;20178;-70
2023/01/25 08:11:22;;;;;;;22.30;11.70;;;-0.40;1.00;;;;;;5054488;28;20257;-71
2023/01/25 08:13:48;;;;;;;17.40;10.00;;;-0.30;1.00;;;;;;5054470;28;20202;-71
2023/01/25 08:16:16;;;;;;;29.05;14.27;;;-0.40;1.00;;;;;;5053379;28;20179;-69
2023/01/25 08:18:42;;;;;;;24.15;11.77;;;-0.40;1.00;;;;;;5054555;28;20167;-69
2023/01/25 08:21:08;;;;;;;27.02;14.23;;;-0.30;1.00;;;;;;5054402;28;20163;-69
2023/01/25 08:23:34;;;;;;;22.55;12.75;;;-0.40;1.00;;;;;;5036711;28;20188;-71
2023/01/25 08:26:08;;;;;;;20.17;11.73;;;-0.30;1.00;;;;;;5033452;28;20195;-71
2023/01/25 08:28:34;;;;;;;18.50;10.95;;;-0.20;1.00;;;;;;5034267;28;20466;-71
2023/01/25 08:31:19;;;;;;;22.90;11.15;;;-0.20;1.00;;;;;;5034103;28;20258;-71
2023/01/25 08:33:46;;;;;;;25.55;13.77;;;-0.20;1.00;;;;;;5034034;28;20210;-69
2023/01/25 08:36:14;;;;;;;24.20;13.27;;;-0.10;1.00;;;;;;5048671;28;20210;-70
2023/01/25 08:38:40;;;;;;;24.10;12.30;;;-0.10;1.00;;;;;;5054056;28;20591;-68
2023/01/25 08:41:11;;;;;;;27.48;13.20;;;-0.10;1.00;;;;;;5053706;28;20163;-71
2023/01/25 08:43:37;;;;;;;20.20;11.32;;;0.00;1.00;;;;;;5053672;28;20174;-71
2023/01/25 08:46:04;;;;;;;29.58;12.90;;;0.10;1.00;;;;;;5053000;28;20198;-68
2023/01/25 08:48:30;;;;;;;19.55;11.23;;;0.20;1.00;;;;;;5053796;28;20615;-71
2023/01/25 08:50:56;;;;;;;26.33;14.23;;;0.10;1.00;;;;;;5038051;28;20175;-71
2023/01/25 08:53:22;;;;;;;23.07;14.40;;;0.00;1.00;;;;;;5033852;28;20457;-68
2023/01/25 08:55:48;;;;;;;23.63;11.03;;;0.00;1.00;;;;;;5032737;28;20188;-68
2023/01/25 08:58:15;;;;;;;25.98;12.18;;;-0.10;1.00;;;;;;5033779;28;20402;-70
2023/01/25 09:00:42;;;;;;;20.92;12.23;;;0.00;1.00;;;;;;5033567;28;20172;-71
2023/01/25 09:03:10;;;;;;;26.25;13.27;;;-0.10;1.00;;;;;;5033384;28;20164;-68
2023/01/25 09:05:37;;;;;;;26.73;11.88;;;-0.20;1.00;;;;;;5040367;28;20218;-71
2023/01/25 09:08:04;;;;;;;25.33;10.98;;;-0.20;1.00;;;;;;5033596;28;20254;-68
2023/01/25 09:10:30;;;;;;;18.45;11.48;;;-0.40;1.00;;;;;;5032236;28;20183;-71
2023/01/25 09:12:56;;;;;;;27.33;12.07;;;-0.30;1.00;;;;;;5033389;28;20195;-69
2023/01/25 09:15:22;;;;;;;17.13;10.40;;;-0.20;1.00;;;;;;5031560;28;20949;-71
2023/01/25 09:17:55;;;;;;;17.52;10.10;;;-0.20;1.00;;;;;;5032736;28;20179;-71
2023/01/25 09:20:22;;;;;;;24.77;11.93;;;-0.20;1.00;;;;;;5047258;28;20210;-68
2023/01/25 09:22:48;;;;;;;20.00;10.27;;;-0.20;1.00;;;;;;5053377;28;20170;-68
2023/01/25 09:25:14;;;;;;;26.00;11.37;;;-0.20;1.00;;;;;;5035218;28;20268;-68
2023/01/25 09:27:40;;;;;;;22.75;11.65;;;-0.20;1.00;;;;;;5033309;28;20509;-70
2023/01/25 09:30:09;;;;;;;24.93;12.70;;;-0.20;1.00;;;;;;5033293;28;20202;-68
2023/01/25 09:32:35;;;;;;;25.67;11.90;;;-0.10;1.00;;;;;;5032496;28;21227;-69
2023/01/25 09:35:02;;;;;;;20.47;11.33;;;-0.10;1.00;;;;;;5037891;28;20238;-71
2023/01/25 09:37:28;;;;;;;23.20;9.27;;;-0.10;1.00;;;;;;5042280;28;20478;-71
2023/01/25 09:39:54;;;;;;;23.67;11.93;;;-0.10;1.00;;;;;;5032990;28;20628;-68
2023/01/25 09:42:40;;;;;;;20.50;11.30;;;-0.20;1.00;;;;;;5033019;28;20221;-69
2023/01/25 09:45:21;;;;;;;19.70;11.30;;;-0.10;1.00;;;;;;5032163;28;20198;-71
2023/01/25 09:48:24;;;;;;;23.42;9.60;;;-0.20;1.00;;;;;;5035363;28;21083;-69
2023/01/25 09:51:02;;;;;;;18.08;11.32;;;-0.10;1.00;;;;;;5032851;28;20513;-68
2023/01/25 09:53:37;;;;;;;26.65;11.90;;;0.00;1.00;;;;;;5032954;28;20205;-71
2023/01/25 09:56:22;;;;;;;19.58;12.18;;;-0.10;1.00;;;;;;5031557;28;20199;-71
2023/01/25 09:58:51;;;;;;;18.95;10.02;;;-0.10;1.00;;;;;;5033161;28;20166;-71
2023/01/25 10:01:28;;;;;;;24.25;12.90;;;-0.20;1.00;;;;;;5033001;28;20251;-72
2023/01/25 10:04:13;;;;;;;24.65;12.68;;;-0.30;1.00;;;;;;5032817;28;20525;-68
2023/01/25 10:06:40;;;;;;;21.63;9.70;;;-0.50;1.00;;;;;;5045217;28;20747;-71
2023/01/25 10:09:21;;;;;;;24.42;11.50;;;-0.50;1.00;;;;;;5052760;28;20571;-68
2023/01/25 10:11:47;;;;;;;16.77;10.20;;;-0.50;1.00;;;;;;5052613;28;20163;-71
2023/01/25 10:14:16;;;;;;;22.53;11.83;;;-0.40;1.00;;;;;;5052026;28;20190;-70
2023/01/25 10:16:48;;;;;;;19.42;11.68;;;-0.50;1.00;;;;;;5052194;28;20163;-71
2023/01/25 10:19:29;;;;;;;20.10;10.75;;;-0.60;1.00;;;;;;5052652;28;20194;-69
2023/01/25 10:22:02;;;;;;;23.35;10.20;;;-0.60;1.00;;;;;;5051763;28;20178;-71
2023/01/25 10:24:52;;;;;;;18.27;11.25;;;-0.70;1.00;;;;;;5032330;28;20214;-68
2023/01/25 10:27:39;;;;;;;16.40;11.40;;;-0.70;1.00;;;;;;5032562;28;20175;-71
2023/01/25 10:30:24;;;;;;;24.70;11.70;;;-0.80;1.00;;;;;;5036613;28;20250;-69
2023/01/25 10:32:52;;;;;;;21.67;11.27;;;-0.80;1.00;;;;;;5036461;28;20207;-71
2023/01/25 10:35:21;;;;;;;19.15;9.57;;;-0.80;1.00;;;;;;5040272;28;20198;-67
2023/01/25 10:37:48;;;;;;;25.10;11.65;;;-0.80;1.00;;;;;;5056270;28;20175;-67
2023/01/25 10:40:20;;;;;;;15.60;11.32;;;-0.80;1.00;;;;;;5056191;28;20210;-69
2023/01/25 10:43:10;;;;;;;17.17;11.13;;;-1.00;1.00;;;;;;5055270;28;20773;-71
2023/01/25 10:45:37;;;;;;;23.15;10.95;;;-1.00;1.00;;;;;;5054108;28;20336;-68
2023/01/25 10:48:08;;;;;;;21.65;12.38;;;-1.00;1.00;;;;;;5056179;28;20708;-68
2023/01/25 10:50:45;;;;;;;17.83;10.57;;;-0.90;1.00;;;;;;5054631;28;20284;-71
2023/01/25 10:53:33;;;;;;;24.38;11.85;;;-0.80;1.00;;;;;;5055800;28;20273;-68
2023/01/25 10:56:15;;;;;;;18.13;11.52;;;-0.90;1.00;;;;;;5055071;28;20190;-71
2023/01/25 10:58:47;;;;;;;25.77;15.13;;;-1.00;1.00;;;;;;5055771;28;20237;-71
2023/01/25 11:01:29;;;;;;;21.60;12.48;;;-0.90;1.00;;;;;;5055759;28;20178;-71
2023/01/25 11:03:55;;;;;;;17.20;9.68;;;-0.90;1.00;;;;;;5055207;28;20170;-70
2023/01/25 11:06:34;;;;;;;19.13;10.63;;;-1.00;1.00;;;;;;5034841;28;20192;-68
2023/01/25 11:09:01;;;;;;;21.42;12.70;;;-0.90;1.00;;;;;;5034576;28;20183;-68
2023/01/25 11:11:38;;;;;;;19.55;13.13;;;-0.90;1.00;;;;;;5035809;28;20528;-68
2023/01/25 11:14:17;;;;;;;20.65;11.50;;;-0.90;1.00;;;;;;5034463;28;20218;-68
2023/01/25 11:16:46;;;;;;;22.08;11.70;;;-0.90;1.00;;;;;;5035256;28;20168;-71
2023/01/25 11:19:30;;;;;;;29.25;14.20;;;-0.90;1.00;;;;;;5035106;28;20233;-71
2023/01/25 11:21:58;;;;;;;27.48;15.25;;;-0.90;1.00;;;;;;5033975;28;20197;-71
2023/01/25 11:24:32;;;;;;;27.27;13.57;;;-0.80;1.00;;;;;;5033951;28;20267;-69
2023/01/25 11:27:11;;;;;;;22.67;12.93;;;-0.70;1.00;;;;;;5035415;28;20241;-71
2023/01/25 11:29:37;;;;;;;26.02;14.88;;;-0.60;1.00;;;;;;5035298;28;20638;-70
2023/01/25 11:32:14;;;;;;;24.20;13.17;;;-0.60;1.00;;;;;;5034943;28;20282;-70
2023/01/25 11:34:40;;;;;;;31.75;18.27;;;-0.50;1.00;;;;;;5034321;28;20226;-69
2023/01/25 11:37:25;;;;;;;40.80;19.30;;;-0.50;1.00;;;;;;5034617;28;20223;-67
2023/01/25 11:40:18;;;;;;;12.32;10.20;;;-0.40;1.00;;;;;;5033709;28;20172;-71
2023/01/25 11:43:01;;;;;;;32.20;16.13;;;-0.50;1.00;;;;;;5034534;28;20174;-70
2023/01/25 11:45:44;;;;;;;27.25;13.48;;;-0.50;1.00;;;;;;5034161;28;20199;-68
2023/01/25 11:48:26;;;;;;;27.98;13.80;;;-0.50;1.00;;;;;;5035069;28;20258;-71
2023/01/25 11:51:13;;;;;;;31.65;17.85;;;-0.50;1.00;;;;;;5034327;28;20668;-71
2023/01/25 11:53:57;;;;;;;34.42;20.02;;;-0.40;1.00;;;;;;5034978;28;20204;-68
2023/01/25 11:56:23;;;;;;;36.75;18.27;;;-0.40;1.00;;;;;;5033986;28;20202;-71
2023/01/25 11:59:07;;;;;;;33.73;16.90;;;-0.50;1.00;;;;;;5033605;28;20172;-70
2023/01/25 12:01:47;;;;;;;35.95;16.90;;;-0.50;1.00;;;;;;5034211;28;20253;-68
2023/01/25 12:04:38;;;;;;;36.47;19.60;;;-0.60;1.00;;;;;;5033917;28;20210;-68
2023/01/25 12:07:52;;;;;;;28.60;16.95;;;-0.50;1.00;;;;;;5034723;28;20171;-68
2023/01/25 12:10:28;;;;;;;33.33;19.40;;;-0.50;1.00;;;;;;5016252;28;20187;-71
2023/01/25 12:13:07;;;;;;;35.13;17.52;;;-0.50;1.00;;;;;;5034450;28;20199;-69
2023/01/25 12:16:03;;;;;;;42.50;22.15;;;-0.40;1.00;;;;;;5033554;28;20525;-71
2023/01/25 12:19:06;;;;;;;45.42;20.58;;;-0.30;1.00;;;;;;5034281;28;20170;-71
2023/01/25 12:22:06;;;;;;;47.45;20.75;;;-0.20;1.00;;;;;;5034328;28;20175;-72
2023/01/25 12:24:39;;;;;;;45.42;22.67;;;-0.30;1.00;;;;;;5033505;28;20182;-71
2023/01/25 12:27:20;;;;;;;46.35;23.10;;;-0.30;1.00;;;;;;5034392;28;20192;-68
2023/01/25 12:29:51;;;;;;;44.20;23.30;;;-0.40;1.00;;;;;;5034361;28;20238;-71
2023/01/25 12:32:25;;;;;;;40.20;22.73;;;-0.50;1.00;;;;;;5032537;28;20227;-68
2023/01/25 12:35:11;;;;;;;27.95;12.60;;;-0.50;1.00;;;;;;5033178;28;20191;-71
2023/01/25 12:37:40;;;;;;;40.65;22.02;;;-0.50;1.00;;;;;;5033423;28;20175;-68
2023/01/25 12:40:14;;;;;;;49.70;24.50;;;-0.60;1.00;;;;;;5034136;28;20528;-71
2023/01/25 12:42:45;;;;;;;49.50;26.13;;;-0.50;1.00;;;;;;5034046;28;20179;-71
2023/01/25 12:45:16;;;;;;;46.00;23.85;;;-0.50;1.00;;;;;;5031725;28;20226;-68
2023/01/25 12:48:09;;;;;;;53.20;25.40;;;-0.40;1.00;;;;;;5050955;28;20209;-71